Time;durP1;ratioP1;P1;durP2;ratioP2;P2;SDS_P1;SDS_P2;PMS_P1;PMS_P2;Temp;Humidity;BMP_temperature;BMP_pressure;BME280_temperature;BME280_humidity;BME280_pressure;Samples;Min_cycle;Max_cycle;Signal;HPM_P1;HPM_P2
2022/09/09 00:00:20;;;;;;;2.57;1.50;;;16.20;99.90;;;;;;5056231;28;20453;-80
2022/09/09 00:02:55;;;;;;;3.23;1.63;;;16.20;99.90;;;;;;5054839;28;20482;-80
2022/09/09 00:05:29;;;;;;;3.60;1.50;;;16.20;99.90;;;;;;5055847;28;20457;-80
2022/09/09 00:08:03;;;;;;;2.70;1.20;;;16.10;99.90;;;;;;5055974;28;20472;-80
2022/09/09 00:10:34;;;;;;;6.70;1.33;;;16.20;99.90;;;;;;5048672;28;20443;-80
2022/09/09 00:13:09;;;;;;;3.10;1.40;;;16.20;99.90;;;;;;5050869;28;20468;-80
2022/09/09 00:15:42;;;;;;;1.93;1.20;;;16.20;99.90;;;;;;5058788;28;20453;-81
2022/09/09 00:18:18;;;;;;;2.37;1.20;;;16.10;99.90;;;;;;5064148;28;20522;-81
2022/09/09 00:20:52;;;;;;;2.47;1.33;;;16.10;99.90;;;;;;5065334;28;20537;-81
2022/09/09 00:23:25;;;;;;;3.27;1.30;;;16.10;99.90;;;;;;5064487;28;20480;-81
2022/09/09 00:26:00;;;;;;;3.10;1.00;;;16.10;99.90;;;;;;5063923;28;20547;-81
2022/09/09 00:28:30;;;;;;;3.17;1.10;;;16.10;99.90;;;;;;5063691;28;20509;-81
2022/09/09 00:31:02;;;;;;;2.20;1.40;;;16.10;99.90;;;;;;5061472;28;20796;-81
2022/09/09 00:33:32;;;;;;;2.23;1.00;;;16.10;99.90;;;;;;5055044;28;21007;-81
2022/09/09 00:36:00;;;;;;;4.17;1.00;;;16.10;99.90;;;;;;5055224;28;20454;-81
2022/09/09 00:38:33;;;;;;;3.40;1.20;;;16.10;99.90;;;;;;5055552;28;20461;-80
2022/09/09 00:41:10;;;;;;;2.13;1.10;;;16.10;99.90;;;;;;5055289;28;20466;-81
2022/09/09 00:43:38;;;;;;;3.00;1.10;;;16.20;99.90;;;;;;5054110;28;21002;-81
2022/09/09 00:46:33;;;;;;;2.90;1.00;;;16.10;99.90;;;;;;5054759;28;20470;-81
2022/09/09 00:49:09;;;;;;;3.60;1.10;;;16.10;99.90;;;;;;5054286;28;20488;-80
2022/09/09 00:51:50;;;;;;;4.03;0.80;;;16.10;99.90;;;;;;5054734;28;20509;-80
2022/09/09 00:54:40;;;;;;;2.47;0.90;;;16.20;99.90;;;;;;5036824;28;20481;-80
2022/09/09 00:57:27;;;;;;;2.97;1.10;;;16.20;99.90;;;;;;5054802;28;20437;-81
2022/09/09 00:59:59;;;;;;;3.13;1.00;;;16.10;99.90;;;;;;5054620;28;20530;-80
2022/09/09 01:02:31;;;;;;;2.23;0.80;;;16.20;99.90;;;;;;5054081;28;20482;-81
2022/09/09 01:05:06;;;;;;;2.87;0.90;;;16.20;99.90;;;;;;5052846;28;20442;-81
2022/09/09 01:07:34;;;;;;;2.70;1.03;;;16.20;99.90;;;;;;5054665;28;20438;-81
2022/09/09 01:10:04;;;;;;;2.77;0.90;;;16.10;99.90;;;;;;5054055;28;20528;-81
2022/09/09 01:12:39;;;;;;;5.30;1.00;;;16.20;99.90;;;;;;5053940;28;20474;-81
2022/09/09 01:15:11;;;;;;;3.10;1.63;;;16.20;99.90;;;;;;5052845;28;20985;-81
2022/09/09 01:17:49;;;;;;;3.10;1.57;;;16.20;99.90;;;;;;5048447;28;20455;-80
2022/09/09 01:20:22;;;;;;;2.00;1.00;;;16.30;99.90;;;;;;5054253;28;20444;-81
2022/09/09 01:23:00;;;;;;;2.00;1.17;;;16.30;99.90;;;;;;5054200;28;20479;-81
2022/09/09 01:25:51;;;;;;;1.73;0.83;;;16.30;99.90;;;;;;5054468;28;20547;-81
2022/09/09 01:28:23;;;;;;;1.80;0.90;;;16.30;99.90;;;;;;5054088;28;20455;-81
2022/09/09 01:30:50;;;;;;;2.47;1.30;;;16.30;99.90;;;;;;5054480;28;20491;-81
2022/09/09 01:33:18;;;;;;;3.60;1.13;;;16.30;99.90;;;;;;5052250;28;21054;-81
2022/09/09 01:35:51;;;;;;;2.33;1.20;;;16.40;99.90;;;;;;5053535;28;20454;-81
2022/09/09 01:38:18;;;;;;;2.43;1.10;;;16.40;99.90;;;;;;5053857;28;20446;-81
2022/09/09 01:40:45;;;;;;;2.77;1.20;;;16.40;99.90;;;;;;5053683;28;20458;-81
2022/09/09 01:43:13;;;;;;;2.33;1.10;;;16.30;99.90;;;;;;5052856;28;20902;-81
2022/09/09 01:45:43;;;;;;;2.27;1.30;;;16.30;99.90;;;;;;5054008;28;20455;-81
2022/09/09 01:48:10;;;;;;;3.07;1.20;;;16.30;99.90;;;;;;5053472;28;20454;-81
2022/09/09 01:50:36;;;;;;;5.57;1.83;;;16.30;99.90;;;;;;5053846;28;20494;-80
2022/09/09 01:53:04;;;;;;;3.97;1.53;;;16.30;99.90;;;;;;5052586;28;20558;-80
2022/09/09 01:55:34;;;;;;;4.07;1.80;;;16.30;99.90;;;;;;5053539;28;20461;-81
2022/09/09 01:58:18;;;;;;;5.10;1.90;;;16.30;99.90;;;;;;5053545;28;20478;-80
2022/09/09 02:00:56;;;;;;;3.30;1.50;;;16.40;99.90;;;;;;5053464;28;20462;-80
2022/09/09 02:03:27;;;;;;;3.73;1.87;;;16.50;99.90;;;;;;5059948;28;20489;-81
2022/09/09 02:06:02;;;;;;;2.43;1.73;;;16.50;99.90;;;;;;5064305;28;20515;-81
2022/09/09 02:08:35;;;;;;;2.60;1.60;;;16.50;99.90;;;;;;5060157;28;20451;-81
2022/09/09 02:11:07;;;;;;;3.03;1.90;;;16.50;99.90;;;;;;5053141;28;20488;-82
2022/09/09 02:13:37;;;;;;;2.53;1.70;;;16.50;99.90;;;;;;5051889;28;20496;-81
2022/09/09 02:16:09;;;;;;;5.80;1.53;;;16.60;99.90;;;;;;5052304;28;21000;-82
2022/09/09 02:18:41;;;;;;;4.77;1.80;;;16.60;99.90;;;;;;5053054;28;20460;-81
2022/09/09 02:21:10;;;;;;;4.40;2.00;;;16.60;99.90;;;;;;5052592;28;20902;-80
2022/09/09 02:23:39;;;;;;;2.90;1.97;;;16.60;99.90;;;;;;5052056;28;20514;-81
2022/09/09 02:26:07;;;;;;;2.20;1.53;;;16.50;99.90;;;;;;5052017;28;20480;-80
2022/09/09 02:28:37;;;;;;;5.30;2.00;;;16.50;99.90;;;;;;5044662;28;20449;-81
2022/09/09 02:31:06;;;;;;;2.90;1.63;;;16.50;99.90;;;;;;5039971;28;20488;-81
2022/09/09 02:33:38;;;;;;;2.97;1.60;;;16.50;99.90;;;;;;5052240;28;20478;-80
2022/09/09 02:36:08;;;;;;;2.87;1.83;;;16.50;99.90;;;;;;5052414;28;20539;-80
2022/09/09 02:38:40;;;;;;;3.70;1.50;;;16.50;99.90;;;;;;5052446;28;20447;-80
2022/09/09 02:41:07;;;;;;;2.90;1.60;;;16.60;99.90;;;;;;5052133;28;20455;-80
2022/09/09 02:43:35;;;;;;;3.40;1.67;;;16.50;99.90;;;;;;5051754;28;20473;-80
2022/09/09 02:46:09;;;;;;;4.03;2.00;;;16.60;99.90;;;;;;5051687;28;20452;-81
2022/09/09 02:48:46;;;;;;;4.73;2.20;;;16.50;99.90;;;;;;5052217;28;20942;-80
2022/09/09 02:51:19;;;;;;;2.73;1.73;;;16.50;99.90;;;;;;5052043;28;20486;-81
2022/09/09 02:53:54;;;;;;;5.40;2.03;;;16.50;99.90;;;;;;5051835;28;20525;-81
2022/09/09 02:56:25;;;;;;;3.50;2.20;;;16.50;99.90;;;;;;5052949;28;20462;-81
2022/09/09 02:58:52;;;;;;;4.43;2.20;;;16.50;99.90;;;;;;5053499;28;20462;-81
2022/09/09 03:01:21;;;;;;;3.63;2.10;;;16.60;99.90;;;;;;5056356;28;20817;-80
2022/09/09 03:03:48;;;;;;;5.30;2.33;;;16.60;99.90;;;;;;5073592;28;20518;-80
2022/09/09 03:06:14;;;;;;;2.97;1.77;;;16.60;99.90;;;;;;5057044;28;20464;-79
2022/09/09 03:08:41;;;;;;;2.70;1.70;;;16.70;99.90;;;;;;5056384;28;20449;-81
2022/09/09 03:11:09;;;;;;;2.57;1.70;;;16.70;99.90;;;;;;5056459;28;20949;-80
2022/09/09 03:13:36;;;;;;;2.87;1.90;;;16.70;99.90;;;;;;5054647;28;20475;-81
2022/09/09 03:16:04;;;;;;;3.40;2.07;;;16.80;99.90;;;;;;5055542;28;20445;-81
2022/09/09 03:18:34;;;;;;;3.50;1.73;;;16.80;99.90;;;;;;5054878;28;20459;-80
2022/09/09 03:21:01;;;;;;;5.30;2.00;;;16.70;99.90;;;;;;5055505;28;20531;-82
2022/09/09 03:23:27;;;;;;;3.00;1.70;;;16.70;99.90;;;;;;5055002;28;21023;-81
2022/09/09 03:25:56;;;;;;;3.50;1.57;;;16.70;99.90;;;;;;5056932;28;20479;-81
2022/09/09 03:28:29;;;;;;;3.60;2.10;;;16.70;99.90;;;;;;5051934;28;20466;-81
2022/09/09 03:30:59;;;;;;;7.20;1.70;;;16.70;99.90;;;;;;5056831;28;20519;-80
2022/09/09 03:33:26;;;;;;;3.30;1.37;;;16.80;99.90;;;;;;5055313;28;20485;-81
2022/09/09 03:35:56;;;;;;;4.37;1.50;;;16.80;99.90;;;;;;5055817;28;20454;-82
2022/09/09 03:38:23;;;;;;;4.40;1.73;;;16.70;99.90;;;;;;5055295;28;20904;-81
2022/09/09 03:40:54;;;;;;;4.00;1.50;;;16.70;99.90;;;;;;5054609;28;20542;-81
2022/09/09 03:43:22;;;;;;;6.00;1.70;;;16.70;99.90;;;;;;5052617;28;20514;-81
2022/09/09 03:45:49;;;;;;;4.40;1.50;;;16.70;99.90;;;;;;5053458;28;20459;-82
2022/09/09 03:48:16;;;;;;;3.23;1.50;;;16.70;99.90;;;;;;5060470;28;20459;-82
2022/09/09 03:50:46;;;;;;;2.93;1.70;;;16.70;99.90;;;;;;5062111;28;20486;-82
2022/09/09 03:53:16;;;;;;;7.57;1.60;;;16.70;99.90;;;;;;5061369;28;20484;-83
2022/09/09 03:55:45;;;;;;;3.80;1.50;;;16.50;99.90;;;;;;5061427;28;20491;-82
2022/09/09 03:58:12;;;;;;;2.20;1.30;;;16.60;99.90;;;;;;5063656;28;20478;-83
2022/09/09 04:00:42;;;;;;;6.13;1.80;;;16.60;99.90;;;;;;5062872;28;20458;-83
2022/09/09 04:03:09;;;;;;;7.80;1.70;;;16.50;99.90;;;;;;5061903;28;20486;-83
2022/09/09 04:05:39;;;;;;;3.50;1.80;;;16.50;99.90;;;;;;5063071;28;20813;-82
2022/09/09 04:08:06;;;;;;;2.83;1.60;;;16.40;99.90;;;;;;5062842;28;20970;-84
2022/09/09 04:10:37;;;;;;;3.70;1.63;;;16.40;99.90;;;;;;5060552;28;20486;-83
2022/09/09 04:13:04;;;;;;;8.80;1.70;;;16.40;99.90;;;;;;5060543;28;20893;-82
2022/09/09 04:15:30;;;;;;;5.87;1.73;;;16.40;99.90;;;;;;5062080;28;20443;-83
2022/09/09 04:17:57;;;;;;;4.67;1.77;;;16.50;99.90;;;;;;5059243;28;20440;-83
2022/09/09 04:20:25;;;;;;;3.60;1.90;;;16.50;99.90;;;;;;5060312;28;20455;-83
2022/09/09 04:22:51;;;;;;;4.20;1.83;;;16.50;99.90;;;;;;5059305;28;20843;-84
2022/09/09 04:25:18;;;;;;;2.33;1.73;;;16.50;99.90;;;;;;5059686;28;20449;-82
2022/09/09 04:27:47;;;;;;;2.27;0.93;;;16.50;99.90;;;;;;5058695;28;20543;-82
2022/09/09 04:30:14;;;;;;;1.50;0.80;;;17.50;99.90;;;;;;5052000;28;20617;-81
2022/09/09 04:32:41;;;;;;;2.43;1.40;;;19.00;99.90;;;;;;5044313;28;20563;-83
2022/09/09 04:35:08;;;;;;;4.03;2.00;;;19.20;99.90;;;;;;5059843;28;20993;-85
2022/09/09 04:37:35;;;;;;;2.57;1.47;;;18.80;99.90;;;;;;5060243;28;20456;-85
2022/09/09 04:40:02;;;;;;;3.43;1.33;;;18.40;99.90;;;;;;5059361;28;20508;-84
2022/09/09 04:42:29;;;;;;;3.57;1.37;;;18.00;99.90;;;;;;5060155;28;20473;-84
2022/09/09 04:44:57;;;;;;;3.70;1.73;;;17.70;99.90;;;;;;5058783;28;20991;-84
2022/09/09 04:47:24;;;;;;;6.83;2.07;;;17.50;99.90;;;;;;5059018;28;20460;-85
2022/09/09 04:49:51;;;;;;;3.70;1.40;;;17.30;99.90;;;;;;5058377;28;20458;-84
2022/09/09 04:52:18;;;;;;;3.93;1.50;;;17.20;99.90;;;;;;5057835;28;20464;-84
2022/09/09 04:54:45;;;;;;;3.50;1.70;;;17.10;99.90;;;;;;5055429;28;21015;-84
2022/09/09 04:57:12;;;;;;;3.47;1.23;;;17.00;99.90;;;;;;5051782;28;21299;-83
2022/09/09 04:59:40;;;;;;;6.13;1.80;;;16.90;99.90;;;;;;5046805;28;20460;-83
2022/09/09 05:02:08;;;;;;;3.30;1.30;;;16.90;99.90;;;;;;5043243;28;20470;-83
2022/09/09 05:04:35;;;;;;;4.07;1.50;;;16.80;99.90;;;;;;5034421;28;20459;-81
2022/09/09 05:07:01;;;;;;;3.40;1.63;;;16.70;99.90;;;;;;5042580;28;20482;-81
2022/09/09 05:09:28;;;;;;;4.43;1.80;;;16.70;99.90;;;;;;5042923;28;20458;-81
2022/09/09 05:11:55;;;;;;;3.50;1.60;;;16.70;99.90;;;;;;5053216;28;20491;-82
2022/09/09 05:14:22;;;;;;;4.03;1.50;;;16.70;99.90;;;;;;5046074;28;20487;-83
2022/09/09 05:16:51;;;;;;;3.73;1.63;;;16.70;99.90;;;;;;5045550;28;20539;-83
2022/09/09 05:19:49;;;;;;;3.33;1.60;;;16.80;99.90;;;;;;5052795;28;20532;-82
2022/09/09 05:22:20;;;;;;;3.53;1.73;;;16.80;99.90;;;;;;5053579;28;20958;-84
2022/09/09 05:24:46;;;;;;;4.33;1.77;;;16.80;99.90;;;;;;5042329;28;20463;-82
2022/09/09 05:27:13;;;;;;;2.90;1.70;;;16.70;99.90;;;;;;5031152;28;20447;-82
2022/09/09 05:29:41;;;;;;;3.00;1.53;;;16.80;99.90;;;;;;5039486;28;20474;-83
2022/09/09 05:32:08;;;;;;;3.50;1.87;;;16.80;99.90;;;;;;5055033;28;20496;-84
2022/09/09 05:34:34;;;;;;;2.70;1.50;;;16.80;99.90;;;;;;5062041;28;21234;-84
2022/09/09 05:37:04;;;;;;;3.20;1.70;;;16.90;99.90;;;;;;5056728;28;20457;-84
2022/09/09 05:39:36;;;;;;;5.03;2.00;;;16.90;99.90;;;;;;5055912;28;20460;-83
2022/09/09 05:42:08;;;;;;;5.37;2.13;;;16.80;99.90;;;;;;5054895;28;20522;-83
2022/09/09 05:44:35;;;;;;;4.03;2.30;;;16.80;99.90;;;;;;5053365;28;20455;-83
2022/09/09 05:47:02;;;;;;;5.70;2.37;;;16.90;99.90;;;;;;5051084;28;20952;-84
2022/09/09 05:49:29;;;;;;;9.80;2.50;;;16.90;99.90;;;;;;5039590;28;20465;-83
2022/09/09 05:51:56;;;;;;;5.00;1.57;;;16.80;99.90;;;;;;5053617;28;20552;-84
2022/09/09 05:54:24;;;;;;;5.13;1.80;;;16.80;99.90;;;;;;5053094;28;21098;-85
2022/09/09 05:56:52;;;;;;;5.10;1.97;;;16.90;99.90;;;;;;5053705;28;20463;-84
2022/09/09 05:59:19;;;;;;;4.73;2.23;;;16.90;99.90;;;;;;5053580;28;20463;-86
2022/09/09 06:01:49;;;;;;;5.23;2.33;;;16.90;99.90;;;;;;5053901;28;20538;-84
2022/09/09 06:04:16;;;;;;;6.63;2.00;;;16.90;99.90;;;;;;5044784;28;20911;-83
2022/09/09 06:06:42;;;;;;;5.10;1.67;;;16.90;99.90;;;;;;5032988;28;20448;-83
2022/09/09 06:09:11;;;;;;;4.20;2.00;;;16.90;99.90;;;;;;5035088;28;20459;-88
2022/09/09 06:11:43;;;;;;;4.90;2.30;;;16.90;99.90;;;;;;5034260;28;20547;-86
2022/09/09 06:14:12;;;;;;;5.93;1.93;;;17.00;99.90;;;;;;5032948;28;21022;-84
2022/09/09 06:16:39;;;;;;;8.50;2.40;;;16.90;99.90;;;;;;5033423;28;20519;-83
2022/09/09 06:19:06;;;;;;;6.20;2.30;;;17.00;99.90;;;;;;5032415;28;20551;-86
2022/09/09 06:21:36;;;;;;;5.50;2.10;;;17.10;99.90;;;;;;5035387;28;20471;-83
2022/09/09 06:24:04;;;;;;;6.73;2.40;;;17.10;99.90;;;;;;5031969;28;20487;-82
2022/09/09 06:26:35;;;;;;;3.03;1.97;;;17.10;99.90;;;;;;5032202;28;20551;-85
2022/09/09 06:29:05;;;;;;;11.47;2.67;;;17.20;99.90;;;;;;5033010;28;20459;-85
2022/09/09 06:31:33;;;;;;;3.60;1.83;;;17.20;99.90;;;;;;5048756;28;20487;-84
2022/09/09 06:34:06;;;;;;;3.93;2.33;;;17.30;99.90;;;;;;5051426;28;20482;-86
2022/09/09 06:36:38;;;;;;;8.37;3.10;;;17.30;99.90;;;;;;5052290;28;21039;-84
2022/09/09 06:39:06;;;;;;;4.20;2.20;;;17.20;99.90;;;;;;5052218;28;20463;-85
2022/09/09 06:41:34;;;;;;;5.60;2.60;;;17.30;99.90;;;;;;5052681;28;20512;-83
2022/09/09 06:44:01;;;;;;;4.80;2.50;;;17.40;99.90;;;;;;5050608;28;20534;-84
2022/09/09 06:46:32;;;;;;;4.33;1.90;;;17.40;99.90;;;;;;5040177;28;20460;-83
2022/09/09 06:49:02;;;;;;;7.20;2.50;;;17.50;99.90;;;;;;5032347;28;20492;-85
2022/09/09 06:51:33;;;;;;;6.70;2.23;;;17.50;99.90;;;;;;5031528;28;20618;-83
2022/09/09 06:54:03;;;;;;;5.67;2.20;;;17.50;99.90;;;;;;5035776;28;20982;-83
2022/09/09 06:56:34;;;;;;;7.80;2.17;;;17.60;99.90;;;;;;5032713;28;20545;-85
2022/09/09 06:59:03;;;;;;;8.37;2.40;;;17.50;99.90;;;;;;5031383;28;20461;-85
2022/09/09 07:01:35;;;;;;;3.00;1.60;;;17.60;99.90;;;;;;5031029;28;20546;-84
2022/09/09 07:04:07;;;;;;;6.97;2.07;;;17.60;99.90;;;;;;5031623;28;20488;-83
2022/09/09 07:06:43;;;;;;;3.77;1.73;;;17.60;99.90;;;;;;5033208;28;20458;-85
2022/09/09 07:09:14;;;;;;;5.27;1.53;;;17.60;99.90;;;;;;5031732;28;20466;-87
2022/09/09 07:11:45;;;;;;;8.03;2.27;;;17.70;99.90;;;;;;5032001;28;20497;-84
2022/09/09 07:14:13;;;;;;;7.70;1.60;;;17.80;99.90;;;;;;5030839;28;20843;-87
2022/09/09 07:16:42;;;;;;;6.43;1.83;;;17.90;99.90;;;;;;5031617;28;20456;-86
2022/09/09 07:19:09;;;;;;;6.03;1.87;;;17.90;99.90;;;;;;5050134;28;20454;-83
2022/09/09 07:21:35;;;;;;;4.70;1.60;;;17.90;99.90;;;;;;5053599;28;20448;-85
2022/09/09 07:24:04;;;;;;;5.27;1.93;;;18.10;99.90;;;;;;5036764;28;20476;-88
2022/09/09 07:26:32;;;;;;;7.63;3.00;;;18.10;99.90;;;;;;5048176;28;20464;-85
2022/09/09 07:28:59;;;;;;;5.57;1.60;;;18.00;99.90;;;;;;5057648;28;20549;-86
2022/09/09 07:31:27;;;;;;;5.00;1.60;;;17.90;99.90;;;;;;5055283;28;20559;-83
2022/09/09 07:33:55;;;;;;;4.70;1.60;;;18.10;99.90;;;;;;5053805;28;20466;-84
2022/09/09 07:36:25;;;;;;;2.80;1.30;;;18.20;99.90;;;;;;5056225;28;20457;-82
2022/09/09 07:38:53;;;;;;;2.93;1.53;;;18.40;99.90;;;;;;5055941;28;20471;-83
2022/09/09 07:41:22;;;;;;;4.60;1.50;;;18.40;99.90;;;;;;5056315;28;21005;-84
2022/09/09 07:43:50;;;;;;;4.03;1.47;;;18.20;99.90;;;;;;5050228;28;20469;-84
2022/09/09 07:46:19;;;;;;;5.23;1.80;;;18.30;99.90;;;;;;5035851;28;21021;-85
2022/09/09 07:48:46;;;;;;;2.60;1.40;;;18.40;99.90;;;;;;5035210;28;20484;-84
2022/09/09 07:51:18;;;;;;;8.60;1.80;;;18.40;99.90;;;;;;5034054;28;20579;-82
2022/09/09 07:53:45;;;;;;;6.70;1.70;;;18.30;99.90;;;;;;5038281;28;20477;-84
2022/09/09 07:56:14;;;;;;;3.33;1.20;;;18.20;99.90;;;;;;5054282;28;20449;-84
2022/09/09 07:58:41;;;;;;;4.07;1.53;;;18.30;99.90;;;;;;5055246;28;20465;-83
2022/09/09 08:01:10;;;;;;;4.40;1.30;;;18.30;99.90;;;;;;5056243;28;20451;-83
2022/09/09 08:03:37;;;;;;;6.60;1.60;;;18.40;99.90;;;;;;5055399;28;20487;-83
2022/09/09 08:06:06;;;;;;;4.40;1.63;;;18.50;99.90;;;;;;5055642;28;20455;-84
2022/09/09 08:08:35;;;;;;;4.23;1.53;;;18.50;99.90;;;;;;5055399;28;20997;-82
2022/09/09 08:11:07;;;;;;;5.67;1.40;;;18.50;99.90;;;;;;5055411;28;20530;-84
2022/09/09 08:13:34;;;;;;;5.10;1.30;;;18.50;99.90;;;;;;5055055;28;20925;-83
2022/09/09 08:16:06;;;;;;;5.50;1.60;;;18.50;99.90;;;;;;5054174;28;20950;-83
2022/09/09 08:18:33;;;;;;;5.83;1.70;;;18.70;99.90;;;;;;5055005;28;20875;-83
2022/09/09 08:21:08;;;;;;;6.33;1.97;;;18.70;99.90;;;;;;5044830;28;20448;-83
2022/09/09 08:23:37;;;;;;;3.23;1.20;;;18.70;99.90;;;;;;5035972;28;20855;-87
2022/09/09 08:26:09;;;;;;;4.97;1.10;;;18.80;99.90;;;;;;5052981;28;20493;-83
2022/09/09 08:28:35;;;;;;;7.57;1.37;;;18.80;99.90;;;;;;5053647;28;20959;-83
2022/09/09 08:31:11;;;;;;;4.07;1.43;;;18.70;99.90;;;;;;5053882;28;20480;-84
2022/09/09 08:33:39;;;;;;;5.10;1.67;;;18.90;99.90;;;;;;5053236;28;20549;-85
2022/09/09 08:36:08;;;;;;;6.90;1.40;;;18.80;99.90;;;;;;5053018;28;20453;-87
2022/09/09 08:38:37;;;;;;;5.53;1.60;;;18.90;99.90;;;;;;5042457;28;20455;-87
2022/09/09 08:41:22;;;;;;;6.70;1.70;;;18.80;99.90;;;;;;5044290;28;20446;-84
2022/09/09 08:43:53;;;;;;;3.83;1.17;;;18.70;99.90;;;;;;5042272;28;20466;-87
2022/09/09 08:46:26;;;;;;;4.53;1.23;;;18.70;99.90;;;;;;5033806;28;20455;-85
2022/09/09 08:48:57;;;;;;;4.20;1.20;;;18.70;99.90;;;;;;5033537;28;20467;-83
2022/09/09 08:51:28;;;;;;;5.30;1.60;;;18.80;99.90;;;;;;5034085;28;20494;-84
2022/09/09 08:54:06;;;;;;;5.10;1.63;;;19.00;99.90;;;;;;5037594;28;20471;-86
2022/09/09 08:56:34;;;;;;;5.17;1.73;;;19.10;99.90;;;;;;5045871;28;20477;-85
2022/09/09 08:59:05;;;;;;;10.10;1.70;;;19.20;99.90;;;;;;5047811;28;20455;-84
2022/09/09 09:02:03;;;;;;;6.20;1.60;;;19.50;99.90;;;;;;5041535;28;20456;-86
2022/09/09 09:04:41;;;;;;;4.03;1.70;;;19.70;99.90;;;;;;5040446;28;20471;-86
2022/09/09 09:07:21;;;;;;;5.27;1.93;;;19.90;99.90;;;;;;5059524;28;20440;-86
2022/09/09 09:09:59;;;;;;;3.33;1.70;;;19.90;99.90;;;;;;5052525;28;20917;-87
2022/09/09 09:12:29;;;;;;;3.60;1.50;;;20.10;99.90;;;;;;5053491;28;20510;-84
2022/09/09 09:14:57;;;;;;;6.40;1.60;;;20.30;99.90;;;;;;5053448;28;20532;-86
2022/09/09 09:17:27;;;;;;;4.93;2.10;;;20.40;99.90;;;;;;5049291;28;20479;-86
2022/09/09 09:19:58;;;;;;;7.17;2.03;;;20.30;99.90;;;;;;5046422;28;20532;-85
2022/09/09 09:22:32;;;;;;;9.10;2.10;;;20.10;99.90;;;;;;5047965;28;20463;-85
2022/09/09 09:25:10;;;;;;;5.50;1.90;;;19.80;99.90;;;;;;5048039;28;20486;-86
2022/09/09 09:27:41;;;;;;;5.23;1.70;;;20.10;99.90;;;;;;5055097;28;20456;-85
2022/09/09 09:30:17;;;;;;;3.53;1.70;;;20.10;99.90;;;;;;5055286;28;20455;-85
2022/09/09 09:32:50;;;;;;;4.43;1.60;;;20.10;99.90;;;;;;5051069;28;20857;-83
2022/09/09 09:35:17;;;;;;;5.67;1.93;;;20.30;99.90;;;;;;5042763;28;20447;-86
2022/09/09 09:37:45;;;;;;;3.00;1.47;;;20.50;99.90;;;;;;5042853;28;20455;-86
2022/09/09 09:40:14;;;;;;;3.37;1.40;;;20.60;99.90;;;;;;5048404;28;20951;-87
2022/09/09 09:42:51;;;;;;;6.23;1.50;;;20.80;99.90;;;;;;5034554;28;20476;-85
2022/09/09 09:45:28;;;;;;;6.33;1.33;;;21.00;99.90;;;;;;5045435;28;21162;-85
2022/09/09 09:48:03;;;;;;;4.93;2.07;;;21.60;99.90;;;;;;5034934;28;20826;-87
2022/09/09 09:50:32;;;;;;;5.20;1.80;;;21.90;99.90;;;;;;5051437;28;20475;-80
2022/09/09 09:53:03;;;;;;;3.17;1.20;;;22.10;99.90;;;;;;5053414;28;20479;-82
2022/09/09 09:55:34;;;;;;;6.37;2.07;;;22.20;99.90;;;;;;5036595;28;20506;-84
2022/09/09 09:58:05;;;;;;;7.10;2.00;;;22.20;99.90;;;;;;5040220;28;20452;-82
2022/09/09 10:00:34;;;;;;;6.77;1.30;;;22.20;99.90;;;;;;5034003;28;20453;-81
2022/09/09 10:03:02;;;;;;;6.53;1.60;;;22.10;99.90;;;;;;5040243;28;20504;-83
2022/09/09 10:05:30;;;;;;;4.07;1.53;;;22.40;99.90;;;;;;5049872;28;20519;-84
2022/09/09 10:08:11;;;;;;;6.77;1.57;;;22.50;99.90;;;;;;5039621;28;20514;-83
2022/09/09 10:11:00;;;;;;;4.40;1.20;;;22.00;99.90;;;;;;5043114;28;20533;-83
2022/09/09 10:13:36;;;;;;;5.13;1.70;;;21.90;99.90;;;;;;5033552;28;20496;-87
2022/09/09 10:16:17;;;;;;;4.67;1.40;;;21.80;99.90;;;;;;5036714;28;20451;-85
2022/09/09 10:18:54;;;;;;;6.43;1.40;;;21.10;99.90;;;;;;5052345;28;20452;-84
2022/09/09 10:21:32;;;;;;;4.93;1.40;;;21.10;99.90;;;;;;5053045;28;20882;-87
2022/09/09 10:24:12;;;;;;;4.67;1.40;;;20.90;99.90;;;;;;5045016;28;20478;-86
2022/09/09 10:26:50;;;;;;;5.40;1.40;;;20.90;99.90;;;;;;5042605;28;20448;-84
2022/09/09 10:29:32;;;;;;;4.60;1.43;;;20.80;99.90;;;;;;5048642;28;20455;-85
2022/09/09 10:32:12;;;;;;;3.60;1.40;;;20.90;99.90;;;;;;5045097;28;20976;-86
2022/09/09 10:34:58;;;;;;;4.00;1.50;;;21.30;99.90;;;;;;5049425;28;20454;-84
2022/09/09 10:37:50;;;;;;;3.13;0.97;;;21.90;99.90;;;;;;5052644;28;21043;-80
2022/09/09 10:40:40;;;;;;;5.90;1.47;;;22.80;99.90;;;;;;5032816;28;20450;-83
2022/09/09 10:43:21;;;;;;;5.10;1.70;;;23.40;99.90;;;;;;5047955;28;20471;-85
2022/09/09 10:46:01;;;;;;;2.90;1.10;;;23.80;99.90;;;;;;5042109;28;20503;-83
2022/09/09 10:48:37;;;;;;;3.40;1.20;;;23.60;99.90;;;;;;5040100;28;20475;-82
2022/09/09 10:51:18;;;;;;;3.10;1.30;;;23.10;99.90;;;;;;5066899;28;21006;-83
2022/09/09 10:53:53;;;;;;;4.40;1.13;;;22.40;99.90;;;;;;5061832;28;20554;-82
2022/09/09 10:56:23;;;;;;;5.20;1.70;;;22.20;99.90;;;;;;5039955;28;20971;-83
2022/09/09 10:58:59;;;;;;;4.13;1.33;;;21.80;99.90;;;;;;5054665;28;20467;-84
2022/09/09 11:01:31;;;;;;;4.43;1.50;;;22.10;99.90;;;;;;5055390;28;20435;-84
2022/09/09 11:04:02;;;;;;;6.13;2.00;;;22.00;99.90;;;;;;5055702;28;20503;-86
2022/09/09 11:06:38;;;;;;;3.73;1.60;;;21.90;99.90;;;;;;5047163;28;20459;-85
2022/09/09 11:09:06;;;;;;;6.40;1.33;;;21.70;99.90;;;;;;5048562;28;20448;-87
2022/09/09 11:11:39;;;;;;;2.70;1.10;;;21.40;99.90;;;;;;5048982;28;20455;-86
2022/09/09 11:14:16;;;;;;;8.47;1.73;;;21.30;99.90;;;;;;5050909;28;20560;-87
2022/09/09 11:16:49;;;;;;;4.80;1.60;;;21.30;99.90;;;;;;5037006;28;20985;-86
2022/09/09 11:19:23;;;;;;;6.57;2.20;;;21.30;99.90;;;;;;5036433;28;20556;-86
2022/09/09 11:21:51;;;;;;;5.73;1.77;;;21.00;99.90;;;;;;5036574;28;20459;-85
2022/09/09 11:24:23;;;;;;;5.17;2.00;;;21.10;99.90;;;;;;5035889;28;20476;-83
2022/09/09 11:26:55;;;;;;;2.80;1.10;;;21.10;99.90;;;;;;5037747;28;20471;-85
2022/09/09 11:29:48;;;;;;;6.70;2.20;;;21.00;99.90;;;;;;5035550;28;20475;-86
2022/09/09 11:32:35;;;;;;;5.87;1.10;;;21.40;99.90;;;;;;5027989;28;20481;-86
2022/09/09 11:35:20;;;;;;;2.27;0.90;;;21.60;99.90;;;;;;5034771;28;20456;-85
2022/09/09 11:38:17;;;;;;;5.20;1.50;;;22.10;99.90;;;;;;5035608;28;20551;-86
2022/09/09 11:40:46;;;;;;;3.60;1.27;;;22.50;99.90;;;;;;5038109;28;20475;-87
2022/09/09 11:43:17;;;;;;;3.13;0.90;;;22.90;99.90;;;;;;5054810;28;20467;-85
2022/09/09 11:45:53;;;;;;;2.70;1.10;;;22.90;99.90;;;;;;5054916;28;20470;-86
2022/09/09 11:48:34;;;;;;;3.80;1.53;;;22.60;99.90;;;;;;5035891;28;20452;-83
2022/09/09 11:51:04;;;;;;;2.73;0.97;;;22.30;99.90;;;;;;5037397;28;20449;-86
2022/09/09 11:53:32;;;;;;;5.07;0.97;;;21.90;99.90;;;;;;5039422;28;20567;-86
2022/09/09 11:56:09;;;;;;;2.50;1.00;;;21.80;99.90;;;;;;5055686;28;20462;-86
2022/09/09 11:58:42;;;;;;;2.60;0.90;;;21.80;99.90;;;;;;5055388;28;20546;-86
2022/09/09 12:01:29;;;;;;;4.57;1.20;;;21.80;99.90;;;;;;5056641;28;20547;-84
2022/09/09 12:04:12;;;;;;;4.00;1.13;;;21.50;99.90;;;;;;5057579;28;20487;-85
2022/09/09 12:06:46;;;;;;;4.10;1.20;;;21.40;99.90;;;;;;5047328;28;20538;-85
2022/09/09 12:09:27;;;;;;;3.50;0.90;;;21.40;99.90;;;;;;5046165;28;20531;-85
2022/09/09 12:12:06;;;;;;;3.30;1.03;;;21.50;99.90;;;;;;5038532;28;20460;-85
2022/09/09 12:14:38;;;;;;;6.10;1.40;;;21.20;99.90;;;;;;5056804;28;20526;-84
2022/09/09 12:17:21;;;;;;;6.07;1.13;;;21.10;99.90;;;;;;5056349;28;20488;-84
2022/09/09 12:19:49;;;;;;;4.40;1.00;;;20.90;99.90;;;;;;5053704;28;20863;-86
2022/09/09 12:22:26;;;;;;;2.63;1.03;;;20.90;99.90;;;;;;5054850;28;20462;-85
2022/09/09 12:25:00;;;;;;;4.10;1.20;;;20.80;99.90;;;;;;5043659;28;20524;-86
2022/09/09 12:27:33;;;;;;;3.53;1.10;;;20.80;99.90;;;;;;5034010;28;20463;-86
2022/09/09 12:30:06;;;;;;;2.80;1.00;;;20.90;99.90;;;;;;5043745;28;20456;-88
2022/09/09 12:32:34;;;;;;;3.73;1.10;;;21.10;99.90;;;;;;5064995;28;20480;-85
2022/09/09 12:35:05;;;;;;;3.60;1.10;;;21.10;99.90;;;;;;5065994;28;20480;-85
2022/09/09 12:37:35;;;;;;;6.77;1.20;;;21.60;99.90;;;;;;5060638;28;20980;-84
2022/09/09 12:40:04;;;;;;;2.43;0.83;;;21.70;99.90;;;;;;5063128;28;20507;-83
2022/09/09 12:42:33;;;;;;;2.80;1.07;;;21.60;99.90;;;;;;5061795;28;20480;-85
2022/09/09 12:45:02;;;;;;;6.20;1.17;;;21.50;99.90;;;;;;5058863;28;20463;-84
2022/09/09 12:47:42;;;;;;;2.73;1.33;;;21.30;99.90;;;;;;5060915;28;20452;-86
2022/09/09 12:50:18;;;;;;;3.57;1.10;;;21.10;99.90;;;;;;5045501;28;20452;-85
2022/09/09 12:52:47;;;;;;;3.57;0.97;;;20.80;99.90;;;;;;5058004;28;20487;-86
2022/09/09 12:55:19;;;;;;;4.30;1.00;;;20.60;99.90;;;;;;5056732;28;20503;-85
2022/09/09 12:57:46;;;;;;;4.13;1.10;;;20.60;99.90;;;;;;5052036;28;20460;-85
2022/09/09 13:00:16;;;;;;;4.10;1.20;;;21.60;99.90;;;;;;5038488;28;20816;-83
2022/09/09 13:02:51;;;;;;;6.20;1.03;;;22.90;99.90;;;;;;5057469;28;20464;-86
2022/09/09 13:05:21;;;;;;;4.20;0.97;;;23.80;99.90;;;;;;5055268;28;20825;-88
2022/09/09 13:07:48;;;;;;;3.80;0.93;;;24.40;99.90;;;;;;5053211;28;21030;-87
2022/09/09 13:10:18;;;;;;;3.40;0.90;;;25.00;99.90;;;;;;5052046;28;20479;-85